createdAt,value
2022-11-23T00:01:19.218Z,6.22
2022-11-23T00:04:22.535Z,6.20
2022-11-23T00:07:25.241Z,6.20
2022-11-23T00:10:27.985Z,6.17
2022-11-23T00:13:31.020Z,6.16
2022-11-23T00:16:33.868Z,6.14
2022-11-23T00:19:36.625Z,6.09
2022-11-23T00:22:39.304Z,6.10
2022-11-23T00:25:46.105Z,6.10
2022-11-23T00:28:49.282Z,6.08
2022-11-23T00:31:52.160Z,6.07
2022-11-23T00:34:54.871Z,6.06
2022-11-23T00:37:57.999Z,6.06
2022-11-23T00:41:05.397Z,6.05
2022-11-23T00:44:08.730Z,6.06
2022-11-23T00:47:11.439Z,6.06
2022-11-23T00:50:14.314Z,6.07
2022-11-23T00:53:18.462Z,6.06
2022-11-23T00:56:21.623Z,6.11
2022-11-23T00:59:24.443Z,6.09
2022-11-23T01:02:27.275Z,6.07
2022-11-23T01:05:30.066Z,6.05
2022-11-23T01:08:35.739Z,6.03
2022-11-23T01:11:38.481Z,6.00
2022-11-23T01:14:41.294Z,5.99
2022-11-23T01:17:44.074Z,5.98
2022-11-23T01:20:46.931Z,5.97
2022-11-23T01:23:49.716Z,5.95
2022-11-23T01:26:53.692Z,5.93
2022-11-23T01:29:56.383Z,5.94
2022-11-23T01:32:59.153Z,5.89
2022-11-23T01:36:08.397Z,5.88
2022-11-23T01:39:12.210Z,5.87
2022-11-23T01:42:17.830Z,5.84
2022-11-23T01:45:37.955Z,5.82
2022-11-23T01:48:45.534Z,5.80
2022-11-23T01:51:51.184Z,5.80
2022-11-23T01:54:57.032Z,5.75
2022-11-23T01:58:00.097Z,5.75
2022-11-23T02:01:03.268Z,5.75
2022-11-23T02:04:10.366Z,5.75
2022-11-23T02:07:19.035Z,5.73
2022-11-23T02:10:23.402Z,5.71
2022-11-23T02:13:29.267Z,5.70
2022-11-23T02:16:32.354Z,5.67
2022-11-23T02:19:58.062Z,5.67
2022-11-23T02:23:21.279Z,5.69
2022-11-23T02:26:29.876Z,5.68
2022-11-23T02:29:33.723Z,5.68
2022-11-23T02:32:38.972Z,5.67
2022-11-23T02:35:56.392Z,5.70
2022-11-23T02:39:01.970Z,5.67
2022-11-23T02:42:05.887Z,5.66
2022-11-23T02:45:19.085Z,5.67
2022-11-23T02:48:21.794Z,5.66
2022-11-23T02:51:24.704Z,5.65
2022-11-23T02:54:27.747Z,5.66
2022-11-23T02:57:30.481Z,5.66
2022-11-23T03:00:34.307Z,5.68
2022-11-23T03:03:37.307Z,5.69
2022-11-23T03:06:41.820Z,5.69
2022-11-23T03:09:44.586Z,5.68
2022-11-23T03:12:47.935Z,5.73
2022-11-23T03:15:51.536Z,5.72
2022-11-23T03:18:55.673Z,5.69
2022-11-23T03:21:59.182Z,5.68
2022-11-23T03:25:02.034Z,5.65
2022-11-23T03:28:05.293Z,5.65
2022-11-23T03:31:09.198Z,5.65
2022-11-23T03:34:13.637Z,5.64
2022-11-23T03:37:16.826Z,5.65
2022-11-23T03:40:19.807Z,5.66
2022-11-23T03:43:46.871Z,5.67
2022-11-23T03:46:50.778Z,5.67
2022-11-23T03:49:53.633Z,5.70
2022-11-23T03:52:57.357Z,5.72
2022-11-23T03:56:00.110Z,5.71
2022-11-23T03:59:06.955Z,5.71
2022-11-23T04:02:10.053Z,5.71
2022-11-23T04:05:20.958Z,5.69
2022-11-23T04:09:02.001Z,5.68
2022-11-23T04:12:34.049Z,5.69
2022-11-23T04:15:36.726Z,5.68
2022-11-23T04:18:39.752Z,5.68
2022-11-23T04:21:44.197Z,5.69
2022-11-23T04:24:46.971Z,5.70
2022-11-23T04:27:49.775Z,5.72
2022-11-23T04:30:52.881Z,5.72
2022-11-23T04:33:57.353Z,5.72
2022-11-23T04:37:01.693Z,5.72
2022-11-23T04:40:11.426Z,5.75
2022-11-23T04:43:23.506Z,5.75
2022-11-23T04:46:26.507Z,5.87
2022-11-23T04:49:29.352Z,5.86
2022-11-23T04:52:32.843Z,5.85
2022-11-23T04:55:35.770Z,5.91
2022-11-23T04:58:38.784Z,5.96
2022-11-23T05:01:42.248Z,5.99
2022-11-23T05:05:03.740Z,5.99
2022-11-23T05:08:07.332Z,5.88
2022-11-23T05:11:37.019Z,5.85
2022-11-23T05:14:39.946Z,5.85
2022-11-23T05:17:43.995Z,5.87
2022-11-23T05:20:53.342Z,5.85
2022-11-23T05:23:56.932Z,5.87
2022-11-23T05:26:59.730Z,5.87
2022-11-23T05:30:02.936Z,5.85
2022-11-23T05:33:06.819Z,5.84
2022-11-23T05:36:14.023Z,5.87
2022-11-23T05:39:18.169Z,5.86
2022-11-23T05:42:25.156Z,5.86
2022-11-23T05:45:31.403Z,5.89
2022-11-23T05:48:34.780Z,5.91
2022-11-23T05:51:44.197Z,5.90
2022-11-23T05:54:47.270Z,5.93
2022-11-23T05:57:51.054Z,5.90
2022-11-23T06:00:58.914Z,5.95
2022-11-23T06:04:02.685Z,5.93
2022-11-23T06:07:11.884Z,5.97
2022-11-23T06:10:33.455Z,6.02
2022-11-23T06:13:36.294Z,6.01
2022-11-23T06:16:39.088Z,6.03
2022-11-23T06:20:00.314Z,6.01
2022-11-23T06:23:03.532Z,6.03
2022-11-23T06:26:06.536Z,6.14
2022-11-23T06:29:11.485Z,6.14
2022-11-23T06:32:14.672Z,6.15
2022-11-23T06:35:19.172Z,6.23
2022-11-23T06:38:22.505Z,6.23
2022-11-23T06:41:33.907Z,6.29
2022-11-23T06:44:38.415Z,6.22
2022-11-23T06:47:43.963Z,6.25
2022-11-23T06:50:47.444Z,6.37
2022-11-23T06:53:51.968Z,6.34
2022-11-23T06:56:56.811Z,6.33
2022-11-23T07:00:00.619Z,6.31
2022-11-23T07:03:24.542Z,6.26
2022-11-23T07:06:41.921Z,6.32
2022-11-23T07:09:57.331Z,6.42
2022-11-23T07:13:10.631Z,6.59
2022-11-23T07:16:16.712Z,6.55
2022-11-23T07:19:23.373Z,6.47
2022-11-23T07:22:27.859Z,6.45
2022-11-23T07:25:40.147Z,6.59
2022-11-23T07:28:44.263Z,6.63
2022-11-23T07:31:47.716Z,6.72
2022-11-23T07:34:51.208Z,6.76
2022-11-23T07:37:56.952Z,6.87
2022-11-23T07:41:01.933Z,6.92
2022-11-23T07:44:26.047Z,7.06
2022-11-23T07:47:29.094Z,7.08
2022-11-23T07:50:32.247Z,6.98
2022-11-23T07:53:36.621Z,7.09
2022-11-23T07:56:39.414Z,7.03
2022-11-23T07:59:42.544Z,7.11
2022-11-23T08:03:11.305Z,7.11
2022-11-23T08:06:13.071Z,7.32
2022-11-23T08:09:16.209Z,7.31
2022-11-23T08:12:19.479Z,7.33
2022-11-23T08:15:24.282Z,7.18
2022-11-23T08:18:28.679Z,7.31
2022-11-23T08:21:31.522Z,7.20
2022-11-23T08:24:35.003Z,7.30
2022-11-23T08:27:38.124Z,7.28
2022-11-23T08:30:41.246Z,7.24
2022-11-23T08:33:44.299Z,7.25
2022-11-23T08:36:50.089Z,7.31
2022-11-23T08:39:53.509Z,7.27
2022-11-23T08:42:56.507Z,7.10
2022-11-23T08:46:05.688Z,7.09
2022-11-23T08:49:10.888Z,7.09
2022-11-23T08:52:13.723Z,7.10
2022-11-23T08:55:17.459Z,7.18
2022-11-23T08:58:20.253Z,7.20
2022-11-23T09:01:23.481Z,7.26
2022-11-23T09:04:27.887Z,7.30
2022-11-23T09:07:32.666Z,7.43
2022-11-23T09:10:36.164Z,7.41
2022-11-23T09:13:39.782Z,7.48
2022-11-23T09:16:43.635Z,7.52
2022-11-23T09:19:46.629Z,7.54
2022-11-23T09:22:53.978Z,7.58
2022-11-23T09:26:04.728Z,7.62
2022-11-23T09:29:08.650Z,7.68
2022-11-23T09:32:11.599Z,7.71
2022-11-23T09:35:18.385Z,7.69
2022-11-23T09:38:33.606Z,7.72
2022-11-23T09:42:17.135Z,7.64
2022-11-23T09:45:47.045Z,7.57
2022-11-23T09:49:39.318Z,7.72
2022-11-23T09:52:48.309Z,7.77
2022-11-23T09:55:54.300Z,7.83
2022-11-23T09:59:03.251Z,7.83
2022-11-23T10:02:20.425Z,7.68
2022-11-23T10:05:26.278Z,7.68
2022-11-23T10:08:46.083Z,7.68
2022-11-23T10:12:10.016Z,7.60
2022-11-23T10:15:16.602Z,7.49
2022-11-23T10:18:34.235Z,7.49
2022-11-23T10:22:04.607Z,7.51
2022-11-23T10:25:17.176Z,7.52
2022-11-23T10:28:22.598Z,7.48
2022-11-23T10:31:26.559Z,7.50
2022-11-23T10:34:56.929Z,7.80
2022-11-23T10:38:18.781Z,8.07
2022-11-23T10:41:22.046Z,8.16
2022-11-23T10:44:38.380Z,8.28
2022-11-23T10:47:49.108Z,8.18
2022-11-23T10:50:53.320Z,8.15
2022-11-23T10:55:02.997Z,8.30
2022-11-23T10:58:05.686Z,8.25
2022-11-23T11:01:25.226Z,8.05
2022-11-23T11:04:31.611Z,7.91
2022-11-23T11:07:37.732Z,7.73
2022-11-23T11:10:50.228Z,7.68
2022-11-23T11:14:23.709Z,7.63
2022-11-23T11:17:29.371Z,7.43
2022-11-23T11:20:59.063Z,7.36
2022-11-23T11:24:09.543Z,7.52
2022-11-23T11:27:16.071Z,7.42
2022-11-23T11:30:25.001Z,7.53
2022-11-23T11:33:39.367Z,7.53
2022-11-23T11:36:54.261Z,7.52
2022-11-23T11:40:13.108Z,7.64
2022-11-23T11:43:36.183Z,7.67
2022-11-23T11:46:47.948Z,7.73
2022-11-23T11:49:56.309Z,7.77
2022-11-23T11:53:23.698Z,7.69
2022-11-23T11:56:43.849Z,7.69
2022-11-23T11:59:50.258Z,7.69
2022-11-23T12:03:07.082Z,7.53
2022-11-23T12:06:35.827Z,7.34
2022-11-23T12:09:50.783Z,7.28
2022-11-23T12:12:56.712Z,7.24
2022-11-23T12:16:18.284Z,7.18
2022-11-23T12:19:24.782Z,7.24
2022-11-23T12:22:54.864Z,7.12
2022-11-23T12:26:06.485Z,7.12
2022-11-23T12:29:41.501Z,6.99
2022-11-23T12:33:08.906Z,7.05
2022-11-23T12:36:54.349Z,7.02
2022-11-23T12:40:23.198Z,6.97
2022-11-23T12:43:37.125Z,6.84
2022-11-23T12:46:51.528Z,6.83
2022-11-23T12:50:27.861Z,6.89
2022-11-23T12:54:03.037Z,6.75
2022-11-23T12:57:24.082Z,6.76
2022-11-23T13:00:34.408Z,6.72
2022-11-23T13:03:52.596Z,6.63
2022-11-23T13:07:28.440Z,6.58
2022-11-23T13:10:48.393Z,6.46
2022-11-23T13:14:16.913Z,6.42
2022-11-23T13:17:19.765Z,6.38
2022-11-23T13:20:57.968Z,6.35
2022-11-23T13:24:00.980Z,6.28
2022-11-23T13:27:46.798Z,6.19
2022-11-23T13:31:15.906Z,6.22
2022-11-23T13:34:45.960Z,6.17
2022-11-23T13:37:54.706Z,6.15
2022-11-23T13:40:57.661Z,6.10
2022-11-23T13:44:19.795Z,6.02
2022-11-23T13:47:22.703Z,6.03
2022-11-23T13:50:26.332Z,5.98
2022-11-23T13:53:36.804Z,5.97
2022-11-23T13:56:42.534Z,6.01
2022-11-23T13:59:45.270Z,5.97
2022-11-23T14:02:48.118Z,5.98
2022-11-23T14:05:50.942Z,5.96
2022-11-23T14:09:06.946Z,6.04
2022-11-23T14:12:18.945Z,6.03
2022-11-23T14:15:24.606Z,6.09
2022-11-23T14:18:56.335Z,6.09
2022-11-23T14:22:37.550Z,6.02
2022-11-23T14:26:29.542Z,5.96
2022-11-23T14:29:51.814Z,5.94
2022-11-23T14:33:37.051Z,5.87
2022-11-23T14:36:45.220Z,5.92
2022-11-23T14:40:15.382Z,5.89
2022-11-23T14:43:19.587Z,5.84
2022-11-23T14:46:25.655Z,5.72
2022-11-23T14:49:29.217Z,5.75
2022-11-23T14:52:37.163Z,5.75
2022-11-23T14:55:39.960Z,5.63
2022-11-23T14:58:42.704Z,5.60
2022-11-23T15:02:22.960Z,5.59
2022-11-23T15:05:32.729Z,5.55
2022-11-23T15:08:50.085Z,5.58
2022-11-23T15:12:18.976Z,5.58
2022-11-23T15:15:30.672Z,5.58
2022-11-23T15:18:38.199Z,5.54
2022-11-23T15:21:44.454Z,5.59
2022-11-23T15:24:47.496Z,5.53
2022-11-23T15:27:50.350Z,5.52
2022-11-23T15:30:58.121Z,5.57
2022-11-23T15:34:05.601Z,5.50
2022-11-23T15:37:11.210Z,5.54
2022-11-23T15:40:16.121Z,5.50
2022-11-23T15:43:20.088Z,5.52
2022-11-23T15:46:44.249Z,5.52
2022-11-23T15:49:48.244Z,5.47
2022-11-23T15:52:51.670Z,5.46
2022-11-23T15:55:57.720Z,5.54
2022-11-23T15:59:04.325Z,5.47
2022-11-23T16:02:16.155Z,5.55
2022-11-23T16:05:23.817Z,5.57
2022-11-23T16:08:26.995Z,5.55
2022-11-23T16:11:35.496Z,5.50
2022-11-23T16:14:38.732Z,5.50
2022-11-23T16:17:45.032Z,5.52
2022-11-23T16:20:51.503Z,5.48
2022-11-23T16:23:58.209Z,5.57
2022-11-23T16:27:01.992Z,5.55
2022-11-23T16:30:05.406Z,5.54
2022-11-23T16:33:27.104Z,5.59
2022-11-23T16:36:29.993Z,5.62
2022-11-23T16:39:33.034Z,5.55
2022-11-23T16:42:35.795Z,5.58
2022-11-23T16:45:44.898Z,5.64
2022-11-23T16:48:47.812Z,5.58
2022-11-23T16:51:57.133Z,5.63
2022-11-23T16:55:00.456Z,5.57
2022-11-23T16:58:03.582Z,5.51
2022-11-23T17:01:11.006Z,5.56
2022-11-23T17:04:17.549Z,5.52
2022-11-23T17:07:20.786Z,5.44
2022-11-23T17:10:23.810Z,5.44
2022-11-23T17:13:29.277Z,5.46
2022-11-23T17:16:34.346Z,5.46
2022-11-23T17:19:37.417Z,5.48
2022-11-23T17:22:40.673Z,5.44
2022-11-23T17:30:56.548Z,5.37
2022-11-23T17:34:01.551Z,5.41
2022-11-23T17:37:05.002Z,5.37
2022-11-23T17:40:27.579Z,5.24
2022-11-23T17:43:30.735Z,5.29
2022-11-23T17:46:34.156Z,5.31
2022-11-23T17:49:37.195Z,5.31
2022-11-23T17:52:45.201Z,5.32
2022-11-23T17:55:48.778Z,5.32
2022-11-23T17:58:53.063Z,5.22
2022-11-23T18:01:56.013Z,5.16
2022-11-23T18:04:59.158Z,5.15
2022-11-23T18:08:02.228Z,5.14
2022-11-23T18:11:05.772Z,5.16
2022-11-23T18:14:08.734Z,5.18
2022-11-23T18:17:11.809Z,5.16
2022-11-23T18:20:15.785Z,5.08
2022-11-23T18:23:18.923Z,5.04
2022-11-23T18:26:27.385Z,5.09
2022-11-23T18:29:31.122Z,5.03
2022-11-23T18:32:34.396Z,5.03
2022-11-23T18:35:37.500Z,5.06
2022-11-23T18:38:41.208Z,5.00
2022-11-23T18:41:44.209Z,4.96
2022-11-23T18:44:47.166Z,4.93
2022-11-23T18:47:50.536Z,4.90
2022-11-23T18:50:54.367Z,4.87
2022-11-23T18:53:58.010Z,4.93
2022-11-23T18:57:00.897Z,4.93
2022-11-23T19:00:06.347Z,4.91
2022-11-23T19:03:10.092Z,4.87
2022-11-23T19:06:15.455Z,4.81
2022-11-23T19:09:19.046Z,4.79
2022-11-23T19:12:22.262Z,4.87
2022-11-23T19:15:27.219Z,4.88
2022-11-23T19:18:30.000Z,4.88
2022-11-23T19:21:35.535Z,4.83
2022-11-23T19:24:38.836Z,4.87
2022-11-23T19:27:41.659Z,4.88
2022-11-23T19:30:44.582Z,4.94
2022-11-23T19:33:50.631Z,4.93
2022-11-23T19:36:53.754Z,4.95
2022-11-23T19:39:57.418Z,5.03
2022-11-23T19:43:00.250Z,5.02
2022-11-23T19:46:05.309Z,4.98
2022-11-23T19:49:08.695Z,5.04
2022-11-23T19:52:11.433Z,5.03
2022-11-23T19:55:14.579Z,5.00
2022-11-23T19:58:17.590Z,5.00
2022-11-23T20:01:22.976Z,4.95
2022-11-23T20:04:26.348Z,5.07
2022-11-23T20:07:31.428Z,5.03
2022-11-23T20:10:34.306Z,5.12
2022-11-23T20:13:37.689Z,5.04
2022-11-23T20:16:40.762Z,5.02
2022-11-23T20:19:43.932Z,4.96
2022-11-23T20:22:46.970Z,5.02
2022-11-23T20:25:50.190Z,5.04
2022-11-23T20:28:55.267Z,5.06
2022-11-23T20:31:58.316Z,5.10
2022-11-23T20:35:01.553Z,5.08
2022-11-23T20:38:05.249Z,5.11
2022-11-23T20:41:15.730Z,5.11
2022-11-23T20:44:19.291Z,4.98
2022-11-23T20:47:22.531Z,5.06
2022-11-23T20:50:27.599Z,4.97
2022-11-23T20:53:31.824Z,5.02
2022-11-23T20:56:35.136Z,5.03
2022-11-23T20:59:38.199Z,5.02
2022-11-23T21:02:41.254Z,5.02
2022-11-23T21:05:44.113Z,5.00
2022-11-23T21:08:48.433Z,5.02
2022-11-23T21:12:09.997Z,4.99
2022-11-23T21:15:15.341Z,5.03
2022-11-23T21:18:18.183Z,5.07
2022-11-23T21:21:21.435Z,5.09
2022-11-23T21:24:25.323Z,5.10
2022-11-23T21:27:28.576Z,5.08
2022-11-23T21:30:31.941Z,5.03
2022-11-23T21:33:38.887Z,5.02
2022-11-23T21:36:41.747Z,5.01
2022-11-23T21:39:51.177Z,4.95
2022-11-23T21:42:55.905Z,5.04
2022-11-23T21:46:10.529Z,5.01
2022-11-23T21:49:13.598Z,4.95
2022-11-23T21:52:16.591Z,5.00
2022-11-23T21:55:19.369Z,5.07
2022-11-23T21:58:22.335Z,5.06
2022-11-23T22:01:28.191Z,5.00
2022-11-23T22:04:31.371Z,5.06
2022-11-23T22:07:34.621Z,5.04
2022-11-23T22:10:37.494Z,5.02
2022-11-23T22:13:42.890Z,5.08
2022-11-23T22:16:47.631Z,5.02
2022-11-23T22:19:50.380Z,5.05
2022-11-23T22:22:53.143Z,5.00
2022-11-23T22:26:01.054Z,4.96
2022-11-23T22:29:06.748Z,5.03
2022-11-23T22:32:09.457Z,5.01
2022-11-23T22:35:12.775Z,4.97
2022-11-23T22:38:15.581Z,5.04
2022-11-23T22:41:18.500Z,5.09
2022-11-23T22:44:21.282Z,5.11
2022-11-23T22:47:23.990Z,5.09
2022-11-23T22:50:26.770Z,5.09
2022-11-23T22:53:29.876Z,5.06
2022-11-23T22:56:32.937Z,5.02
2022-11-23T22:59:35.634Z,5.04
2022-11-23T23:02:39.016Z,5.08
2022-11-23T23:05:41.930Z,5.13
2022-11-23T23:08:45.958Z,5.19
2022-11-23T23:11:48.771Z,5.10
2022-11-23T23:14:51.620Z,5.18
2022-11-23T23:17:55.033Z,5.17
2022-11-23T23:21:03.096Z,5.16
2022-11-23T23:24:06.120Z,5.18
2022-11-23T23:27:09.323Z,5.10
2022-11-23T23:30:12.501Z,5.12
2022-11-23T23:33:15.638Z,5.13
2022-11-23T23:36:21.118Z,5.23
2022-11-23T23:39:23.857Z,5.22
2022-11-23T23:42:26.583Z,5.14
2022-11-23T23:45:29.337Z,5.22
2022-11-23T23:48:37.452Z,5.26
2022-11-23T23:51:40.907Z,5.28
2022-11-23T23:54:44.077Z,5.29
2022-11-23T23:57:46.825Z,5.36
